Terminal Aerodrome Forecast
Issued by NWS Jackson, MS

Home | Current Version | Previous Version | Text Only | Print | Product List | Glossary On
Versions: 1 2 3 4 5 6 7 8 9 10 11 12 13 14 15
000
FTUS44 KJAN 170500
TAFMEI
TAF
KMEI 170522Z 1706/1806 00000KT P6SM SCT250
     FM171400 12008KT P6SM BKN035
     FM171600 11006KT P6SM OVC050
     FM180500 11006KT P6SM OVC025=

USA.gov is the U.S. government's official web portal to all federal, state and local government web resources and services.